Terminal Aerodrome Forecast
Issued by NWS

Home | Current Version | Previous Version | Text Only | Print | Product List | Glossary On
Versions: 1 2 3 4 5 6 7 8 9 10 11 12 13 14
000
FTUS43 KBIS 282335
TAFMOT
TAF
KMOT 282335Z 2900/2924 32008G19KT P6SM SCT250
     FM290300 02004KT P6SM SCT090
     FM290700 15007KT P6SM SCT090
     FM291800 21008KT P6SM -SHRA BKN080=

USA.gov is the U.S. government's official web portal to all federal, state and local government web resources and services.